Time;durP1;ratioP1;P1;durP2;ratioP2;P2;SDS_P1;SDS_P2;PMS_P1;PMS_P2;Temp;Humidity;BMP_temperature;BMP_pressure;BME280_temperature;BME280_humidity;BME280_pressure;Samples;Min_cycle;Max_cycle;Signal;HPM_P1;HPM_P2
2022/08/20 00:02:25;;;;;;;9.10;4.10;;;;;;;25.26;52.65;100111.29;106017;1271;25292;-77
2022/08/20 00:04:52;;;;;;;8.80;4.00;;;;;;;25.22;52.60;100109.19;106133;1272;22550;-76
2022/08/20 00:07:19;;;;;;;7.30;4.00;;;;;;;25.21;52.75;100110.87;106331;1271;22619;-77
2022/08/20 00:09:46;;;;;;;8.10;4.30;;;;;;;25.22;52.69;100109.42;106263;1271;22643;-77
2022/08/20 00:12:16;;;;;;;9.40;4.00;;;;;;;25.21;52.76;100111.97;106204;1270;23913;-77
2022/08/20 00:14:42;;;;;;;6.60;3.80;;;;;;;25.21;52.92;100118.30;106364;1271;22719;-76
2022/08/20 00:17:09;;;;;;;7.10;4.00;;;;;;;25.21;52.94;100127.11;106467;1271;24042;-77
2022/08/20 00:19:36;;;;;;;8.30;3.90;;;;;;;25.18;52.91;100128.27;106441;1271;22527;-74
2022/08/20 00:22:04;;;;;;;11.20;3.90;;;;;;;25.14;53.08;100129.63;106203;1271;25245;-77
2022/08/20 00:24:31;;;;;;;8.90;4.10;;;;;;;25.12;53.21;100124.23;106489;1271;24221;-78
2022/08/20 00:26:58;;;;;;;9.00;4.60;;;;;;;25.11;53.30;100120.11;106477;1271;22512;-78
2022/08/20 00:29:25;;;;;;;9.20;5.80;;;;;;;25.11;53.31;100128.04;106599;1271;24188;-77
2022/08/20 00:31:52;;;;;;;6.60;4.50;;;;;;;25.11;53.22;100125.16;106424;1271;22519;-77
2022/08/20 00:34:19;;;;;;;7.60;3.50;;;;;;;25.09;53.15;100113.44;106378;1271;25383;-76
2022/08/20 00:36:46;;;;;;;6.80;3.90;;;;;;;25.08;53.35;100109.53;106378;1271;24388;-79
2022/08/20 00:39:13;;;;;;;7.60;3.90;;;;;;;25.07;53.55;100113.44;106385;1271;22681;-76
2022/08/20 00:41:39;;;;;;;10.30;4.60;;;;;;;25.05;53.45;100105.39;106273;1271;23965;-77
2022/08/20 00:44:18;;;;;;;6.30;4.20;;;;;;;25.04;53.51;100102.66;106290;1271;25588;-79
2022/08/20 00:46:46;;;;;;;11.10;4.20;;;;;;;25.01;53.66;100098.55;106338;1271;25454;-76
2022/08/20 00:49:29;;;;;;;10.40;4.30;;;;;;;24.96;53.92;100094.92;106357;1271;23323;-75
2022/08/20 00:52:08;;;;;;;9.10;4.10;;;;;;;24.94;54.05;100086.96;106285;1271;22557;-77
2022/08/20 00:54:44;;;;;;;9.70;4.60;;;;;;;24.94;54.17;100085.15;106238;1271;24279;-75
2022/08/20 00:57:31;;;;;;;9.20;4.70;;;;;;;24.94;54.13;100079.05;106270;1271;22542;-75
2022/08/20 01:00:39;;;;;;;9.30;4.10;;;;;;;24.93;54.00;100065.09;106296;1271;22557;-77
2022/08/20 01:03:08;;;;;;;10.30;4.30;;;;;;;24.90;54.06;100062.92;106386;1271;23903;-77
2022/08/20 01:05:38;;;;;;;7.30;4.20;;;;;;;24.89;54.04;100054.20;106256;1271;25287;-76
2022/08/20 01:08:05;;;;;;;6.30;4.60;;;;;;;24.87;54.43;100047.63;106177;1271;22547;-75
2022/08/20 01:10:37;;;;;;;6.70;4.20;;;;;;;24.87;54.30;100044.80;106185;1271;22521;-76
2022/08/20 01:13:08;;;;;;;10.20;4.10;;;;;;;24.82;54.48;100044.79;106100;1271;24338;-76
2022/08/20 01:15:38;;;;;;;8.30;4.10;;;;;;;24.77;54.68;100039.58;106295;1271;22630;-75
2022/08/20 01:18:12;;;;;;;14.00;4.00;;;;;;;24.79;54.69;100045.36;106206;1271;25300;-78
2022/08/20 01:20:43;;;;;;;7.80;4.90;;;;;;;24.77;54.83;100032.21;106309;1271;25364;-76
2022/08/20 01:23:25;;;;;;;10.00;4.50;;;;;;;24.73;55.17;100027.23;106231;1271;22560;-77
2022/08/20 01:26:05;;;;;;;9.30;4.70;;;;;;;24.71;55.03;100022.92;106359;1270;25232;-75
2022/08/20 01:28:34;;;;;;;10.50;4.60;;;;;;;24.68;55.16;100026.55;106317;1271;25436;-76
2022/08/20 01:31:03;;;;;;;8.90;4.70;;;;;;;24.66;55.15;100025.96;106232;1270;24233;-77
2022/08/20 01:33:31;;;;;;;8.30;4.40;;;;;;;24.64;55.24;100025.98;106170;1271;24306;-75
2022/08/20 01:35:59;;;;;;;6.50;4.40;;;;;;;24.57;55.40;100019.77;106170;1272;22613;-77
2022/08/20 01:38:28;;;;;;;10.70;4.40;;;;;;;24.57;55.54;100025.61;106110;1271;22840;-75
2022/08/20 01:41:29;;;;;;;8.20;4.70;;;;;;;24.54;55.61;100021.67;106378;1271;25374;-75
2022/08/20 01:43:57;;;;;;;12.40;4.40;;;;;;;24.48;55.79;100015.92;106285;1271;22533;-79
2022/08/20 01:46:36;;;;;;;10.00;4.10;;;;;;;24.41;55.82;100013.02;106162;1271;25339;-77
2022/08/20 01:49:21;;;;;;;8.90;4.30;;;;;;;24.39;56.17;100006.34;106357;1271;25205;-77
2022/08/20 01:51:51;;;;;;;9.00;4.60;;;;;;;24.35;56.38;100004.30;106394;1271;25312;-76
2022/08/20 01:54:19;;;;;;;8.30;4.90;;;;;;;24.31;56.25;100006.55;106367;1269;25314;-75
2022/08/20 01:57:00;;;;;;;11.80;4.60;;;;;;;24.25;56.32;100003.71;106289;1271;22525;-76
2022/08/20 01:59:28;;;;;;;11.20;4.20;;;;;;;24.23;56.56;100003.91;106428;1270;26567;-78
2022/08/20 02:01:57;;;;;;;7.70;4.60;;;;;;;24.20;56.54;100003.17;106332;1271;24296;-78
2022/08/20 02:04:25;;;;;;;8.00;5.30;;;;;;;24.19;56.77;100000.07;106496;1271;24420;-77
2022/08/20 02:06:56;;;;;;;7.00;4.30;;;;;;;24.17;56.78;99998.59;106279;1271;22760;-78
2022/08/20 02:09:26;;;;;;;9.20;4.60;;;;;;;24.14;57.11;99994.85;106491;1271;23081;-78
2022/08/20 02:11:53;;;;;;;6.80;4.60;;;;;;;24.08;57.05;99993.56;106343;1271;24089;-75
2022/08/20 02:14:20;;;;;;;10.20;4.50;;;;;;;24.04;57.16;99992.46;106391;1269;22518;-79
2022/08/20 02:16:47;;;;;;;7.30;4.70;;;;;;;23.99;57.21;99991.55;106317;1271;22628;-80
2022/08/20 02:19:42;;;;;;;7.90;5.20;;;;;;;23.95;57.44;99992.59;106495;1271;27029;-77
2022/08/20 02:22:21;;;;;;;9.50;4.90;;;;;;;23.92;57.59;99993.51;106417;1271;22524;-77
2022/08/20 02:24:47;;;;;;;8.00;4.30;;;;;;;23.89;57.64;99989.01;106469;1271;25235;-78
2022/08/20 02:27:15;;;;;;;7.60;4.30;;;;;;;23.87;57.94;99993.67;106428;1271;22547;-76
2022/08/20 02:29:42;;;;;;;5.60;4.30;;;;;;;23.84;57.96;99996.19;106397;1271;22588;-77
2022/08/20 02:32:09;;;;;;;10.50;4.90;;;;;;;23.79;57.99;99996.39;106410;1268;25328;-79
2022/08/20 02:34:55;;;;;;;6.60;4.40;;;;;;;23.77;58.22;100016.27;106357;1271;22573;-80
2022/08/20 02:37:22;;;;;;;7.80;4.20;;;;;;;23.74;58.26;100037.19;106286;1271;25104;-81
2022/08/20 02:39:49;;;;;;;6.90;4.80;;;;;;;23.72;58.29;100041.11;106683;1271;25222;-76
2022/08/20 02:42:16;;;;;;;8.10;4.30;;;;;;;23.70;58.49;100032.23;106697;1271;22865;-75
2022/08/20 02:44:42;;;;;;;10.30;4.70;;;;;;;23.69;58.57;100034.33;106981;1271;23920;-76
2022/08/20 02:47:09;;;;;;;10.90;4.80;;;;;;;23.67;58.50;100045.93;107037;1271;25926;-77
2022/08/20 02:49:36;;;;;;;6.30;4.80;;;;;;;23.68;58.56;100041.36;106811;1271;25244;-75
2022/08/20 02:52:03;;;;;;;9.00;4.70;;;;;;;23.66;58.45;100040.83;107314;1270;22608;-76
2022/08/20 02:54:31;;;;;;;12.30;4.90;;;;;;;23.63;58.83;100041.68;107386;1271;26677;-76
2022/08/20 02:56:57;;;;;;;8.60;4.90;;;;;;;23.62;58.65;100028.45;106812;1271;22804;-76
2022/08/20 02:59:24;;;;;;;7.20;4.50;;;;;;;23.61;58.95;100022.83;106981;1271;22519;-75
2022/08/20 03:01:51;;;;;;;9.80;5.20;;;;;;;23.61;58.95;100024.08;106497;1271;22796;-77
2022/08/20 03:04:27;;;;;;;7.40;5.00;;;;;;;23.60;58.98;100018.40;106573;1271;25235;-78
2022/08/20 03:06:55;;;;;;;9.50;4.90;;;;;;;23.58;58.96;99998.95;106529;1268;22628;-76
2022/08/20 03:09:24;;;;;;;6.90;4.50;;;;;;;23.55;59.22;99990.13;106444;1271;24288;-77
2022/08/20 03:11:51;;;;;;;11.00;5.00;;;;;;;23.55;59.17;99987.08;106344;1271;22681;-78
2022/08/20 03:14:18;;;;;;;10.70;5.40;;;;;;;23.49;59.42;99993.41;106284;1271;25666;-77
2022/08/20 03:16:45;;;;;;;8.30;5.30;;;;;;;23.48;59.39;99991.88;106283;1271;22531;-75
2022/08/20 03:19:12;;;;;;;6.70;4.80;;;;;;;23.48;59.31;99988.12;106416;1271;23207;-76
2022/08/20 03:21:39;;;;;;;8.00;4.70;;;;;;;23.46;59.57;99987.48;106438;1271;22531;-77
2022/08/20 03:24:06;;;;;;;7.00;5.20;;;;;;;23.45;59.53;99987.79;106353;1271;25403;-78
2022/08/20 03:26:33;;;;;;;7.40;4.90;;;;;;;23.42;59.57;99984.39;106458;1271;22544;-78
2022/08/20 03:29:00;;;;;;;8.30;5.40;;;;;;;23.41;59.80;99983.39;106189;1268;22568;-77
2022/08/20 03:31:28;;;;;;;7.80;5.10;;;;;;;23.37;59.79;99976.08;106349;1271;25317;-77
2022/08/20 03:33:55;;;;;;;6.00;4.80;;;;;;;23.36;59.62;99965.92;106234;1271;22734;-78
2022/08/20 03:36:24;;;;;;;9.70;5.10;;;;;;;23.37;59.78;99957.21;106275;1271;22692;-77
2022/08/20 03:39:02;;;;;;;6.70;4.80;;;;;;;23.35;59.69;99955.36;106400;1268;22541;-78
2022/08/20 03:41:31;;;;;;;11.50;5.50;;;;;;;23.36;59.97;99953.70;106458;1271;25251;-79
2022/08/20 03:43:58;;;;;;;7.20;4.80;;;;;;;23.38;59.79;99954.63;106305;1271;24430;-82
2022/08/20 03:46:24;;;;;;;6.60;4.50;;;;;;;23.39;60.06;99958.20;106163;1271;22577;-77
2022/08/20 03:48:52;;;;;;;7.90;4.80;;;;;;;23.38;59.98;99953.58;106287;1271;22742;-77
2022/08/20 03:51:28;;;;;;;10.30;5.30;;;;;;;23.40;60.16;99956.48;106296;1271;22618;-80
2022/08/20 03:53:55;;;;;;;11.40;5.10;;;;;;;23.42;59.91;99964.25;106300;1271;22735;-79
2022/08/20 03:56:22;;;;;;;6.90;4.60;;;;;;;23.42;60.13;99975.95;106433;1268;24337;-77
2022/08/20 03:58:49;;;;;;;11.20;5.40;;;;;;;23.44;60.10;99981.95;106208;1271;25248;-81
2022/08/20 04:01:15;;;;;;;8.10;5.00;;;;;;;23.47;60.14;99978.14;106417;1271;22773;-79
2022/08/20 04:04:02;;;;;;;8.30;5.60;;;;;;;23.49;60.24;99973.12;106473;1271;25248;-79
2022/08/20 04:06:29;;;;;;;9.70;5.40;;;;;;;23.49;59.83;99970.42;106257;1271;25235;-82
2022/08/20 04:08:56;;;;;;;9.00;5.20;;;;;;;23.53;59.96;99971.42;106320;1271;24424;-75
2022/08/20 04:11:23;;;;;;;8.10;5.20;;;;;;;23.54;60.06;99979.09;106341;1271;22544;-77
2022/08/20 04:13:50;;;;;;;12.30;4.50;;;;;;;23.53;59.83;99987.23;106211;1271;25287;-79
2022/08/20 04:16:17;;;;;;;7.30;4.90;;;;;;;23.53;59.81;99992.47;106443;1271;25378;-78
2022/08/20 04:18:47;;;;;;;6.60;5.40;;;;;;;23.52;60.25;100000.27;106497;1269;22537;-77
2022/08/20 04:21:28;;;;;;;7.30;5.30;;;;;;;23.53;60.08;100000.89;106546;1271;23256;-77
2022/08/20 04:24:00;;;;;;;7.40;5.10;;;;;;;23.48;60.01;99998.52;106574;1271;22525;-79
2022/08/20 04:26:27;;;;;;;9.20;5.20;;;;;;;23.49;60.05;99994.88;106391;1268;23182;-76
2022/08/20 04:28:54;;;;;;;10.30;5.30;;;;;;;23.49;60.00;99993.60;106342;1271;22678;-77
2022/08/20 04:31:31;;;;;;;7.50;4.70;;;;;;;23.45;59.90;99991.38;106281;1271;25303;-75
2022/08/20 04:34:00;;;;;;;10.60;5.60;;;;;;;23.48;60.08;99992.09;106290;1270;22616;-77
2022/08/20 04:36:28;;;;;;;8.30;5.10;;;;;;;23.51;60.08;99994.05;106426;1271;23247;-77
2022/08/20 04:38:55;;;;;;;10.60;5.30;;;;;;;23.56;60.00;100001.03;106290;1269;24771;-74
2022/08/20 04:41:22;;;;;;;8.00;4.90;;;;;;;23.60;60.24;100000.43;106364;1271;22799;-76
2022/08/20 04:43:54;;;;;;;9.50;5.60;;;;;;;23.64;60.23;100006.04;106288;1271;22553;-75
2022/08/20 04:46:27;;;;;;;8.20;5.20;;;;;;;23.68;60.06;100013.13;106307;1271;22525;-76
2022/08/20 04:48:56;;;;;;;11.10;5.40;;;;;;;23.69;60.21;100017.55;106160;1271;24443;-77
2022/08/20 04:51:24;;;;;;;7.10;4.80;;;;;;;23.69;59.88;100014.16;106353;1271;25244;-76
2022/08/20 04:53:55;;;;;;;6.60;5.50;;;;;;;23.66;59.92;100018.15;106125;1276;22567;-77
2022/08/20 04:56:29;;;;;;;8.70;5.30;;;;;;;23.65;60.07;100015.36;105902;1274;24289;-77
2022/08/20 04:58:59;;;;;;;8.30;5.30;;;;;;;23.67;60.19;100009.05;105912;1276;24302;-75
2022/08/20 05:01:26;;;;;;;7.50;5.00;;;;;;;23.71;60.26;100009.49;106042;1274;22516;-77
2022/08/20 05:03:55;;;;;;;11.30;5.70;;;;;;;23.74;60.44;100004.44;105979;1274;23914;-77
2022/08/20 05:06:27;;;;;;;7.20;4.90;;;;;;;23.77;60.47;100003.20;105975;1274;25232;-77
2022/08/20 05:08:56;;;;;;;11.40;5.10;;;;;;;23.77;60.56;100008.91;106032;1274;24769;-76
2022/08/20 05:11:24;;;;;;;8.30;5.60;;;;;;;23.78;60.76;100007.42;106280;1271;22831;-77
2022/08/20 05:14:07;;;;;;;8.20;4.80;;;;;;;23.80;60.82;100011.05;106529;1270;22474;-78
2022/08/20 05:16:37;;;;;;;9.30;4.80;;;;;;;23.84;60.76;100009.73;106564;1271;22554;-78
2022/08/20 05:19:12;;;;;;;8.00;5.30;;;;;;;23.87;60.72;100010.00;106388;1269;22526;-76
2022/08/20 05:21:39;;;;;;;10.20;5.60;;;;;;;23.90;60.81;100017.21;106336;1271;22601;-77
2022/08/20 05:24:07;;;;;;;10.90;5.20;;;;;;;23.91;60.45;100027.02;106406;1271;22519;-78
2022/08/20 05:26:34;;;;;;;9.20;5.50;;;;;;;23.92;60.57;100024.05;106215;1271;22523;-75
2022/08/20 05:29:03;;;;;;;8.40;5.40;;;;;;;23.92;60.45;100021.92;106340;1273;26651;-79
2022/08/20 05:31:32;;;;;;;9.50;5.60;;;;;;;23.92;60.51;100019.95;106585;1274;22532;-75
2022/08/20 05:34:08;;;;;;;6.80;5.30;;;;;;;23.90;60.60;100019.54;106403;1274;25497;-78
2022/08/20 05:36:44;;;;;;;7.70;5.60;;;;;;;23.94;60.41;100021.09;106287;1274;25158;-78
2022/08/20 05:39:15;;;;;;;10.90;5.70;;;;;;;23.96;60.56;100016.42;106161;1274;24377;-77
2022/08/20 05:41:42;;;;;;;9.30;5.60;;;;;;;23.95;60.28;100014.48;105678;1279;25371;-78
2022/08/20 05:44:12;;;;;;;6.70;5.70;;;;;;;23.97;60.55;100012.54;105699;1277;22567;-79
2022/08/20 05:46:41;;;;;;;8.00;5.30;;;;;;;24.02;60.73;100004.69;106085;1276;22701;-80
2022/08/20 05:49:14;;;;;;;10.90;6.20;;;;;;;24.06;60.38;100000.55;106041;1277;22877;-78
2022/08/20 05:51:42;;;;;;;10.70;5.70;;;;;;;24.08;60.27;100002.05;105923;1276;22848;-78
2022/08/20 05:54:10;;;;;;;7.30;5.20;;;;;;;24.10;60.39;100001.57;105991;1276;24078;-77
2022/08/20 05:56:37;;;;;;;10.20;6.00;;;;;;;24.12;60.40;100000.14;105838;1276;25318;-74
2022/08/20 05:59:07;;;;;;;9.90;5.70;;;;;;;24.15;60.06;99998.52;106017;1271;22480;-77
2022/08/20 06:01:36;;;;;;;9.20;5.80;;;;;;;24.15;60.03;99999.60;106610;1271;22987;-78
2022/08/20 06:06:56;;;;;;;5.90;5.30;;;;;;;24.13;59.75;100004.97;106559;1271;24259;-78
2022/08/20 06:09:25;;;;;;;6.90;5.30;;;;;;;24.12;60.00;100008.80;106455;1271;24320;-82
2022/08/20 06:11:59;;;;;;;8.30;5.80;;;;;;;24.16;59.69;100010.88;106449;1269;22544;-79
2022/08/20 06:14:26;;;;;;;10.30;5.90;;;;;;;24.17;59.74;100013.35;106396;1271;23172;-74
2022/08/20 06:16:53;;;;;;;15.50;6.10;;;;;;;24.19;59.73;100010.84;106003;1271;23286;-78
2022/08/20 06:19:24;;;;;;;10.80;5.70;;;;;;;24.17;59.39;100014.90;106448;1271;25414;-75
2022/08/20 06:21:55;;;;;;;10.50;5.90;;;;;;;24.17;59.65;100014.22;106488;1268;22543;-75
2022/08/20 06:24:23;;;;;;;11.10;6.20;;;;;;;24.17;59.72;100016.77;106426;1271;22480;-80
2022/08/20 06:26:55;;;;;;;8.20;6.40;;;;;;;24.20;60.00;100017.38;106365;1271;22542;-79
2022/08/20 06:29:22;;;;;;;11.20;6.30;;;;;;;24.29;60.17;100016.84;106336;1271;22620;-79
2022/08/20 06:31:49;;;;;;;10.80;6.90;;;;;;;24.32;60.16;100015.32;106802;1271;24213;-79
2022/08/20 06:34:17;;;;;;;11.60;6.70;;;;;;;24.42;60.20;100016.39;106929;1268;24163;-76
2022/08/20 06:36:45;;;;;;;7.20;5.10;;;;;;;24.49;59.96;100017.31;106817;1271;23911;-76
2022/08/20 06:39:16;;;;;;;11.50;6.40;;;;;;;24.55;59.91;100020.83;106832;1268;25234;-76
2022/08/20 06:41:43;;;;;;;7.70;5.80;;;;;;;24.58;59.95;100023.28;107108;1271;22471;-75
2022/08/20 06:44:10;;;;;;;9.00;6.10;;;;;;;24.58;59.80;100024.36;106137;1276;25245;-73
2022/08/20 06:46:37;;;;;;;11.80;6.40;;;;;;;24.59;59.59;100024.30;106206;1275;23044;-76
2022/08/20 06:49:06;;;;;;;8.10;5.30;;;;;;;24.63;59.67;100029.09;106142;1274;22720;-79
2022/08/20 06:51:36;;;;;;;8.80;6.60;;;;;;;24.65;59.50;100029.70;105933;1274;22654;-78
2022/08/20 06:54:05;;;;;;;10.60;5.60;;;;;;;24.67;59.78;100029.29;105955;1274;25218;-78
2022/08/20 06:56:32;;;;;;;10.90;6.40;;;;;;;24.71;59.82;100028.65;106030;1274;25369;-78
2022/08/20 06:58:59;;;;;;;9.60;6.10;;;;;;;24.77;59.82;100028.06;105977;1276;25330;-78
2022/08/20 07:01:26;;;;;;;14.70;6.30;;;;;;;24.85;59.76;100031.80;105897;1274;22520;-76
2022/08/20 07:03:53;;;;;;;13.20;6.20;;;;;;;24.92;59.78;100030.04;106371;1270;22532;-77
2022/08/20 07:06:26;;;;;;;10.00;6.40;;;;;;;24.97;59.83;100027.98;106303;1270;22531;-79
2022/08/20 07:08:54;;;;;;;9.50;6.00;;;;;;;25.03;59.61;100035.17;106291;1271;22599;-79
2022/08/20 07:11:21;;;;;;;9.00;6.10;;;;;;;25.09;59.76;100036.33;106445;1270;22550;-78
2022/08/20 07:13:55;;;;;;;8.10;5.60;;;;;;;25.16;59.48;100040.33;106443;1271;26673;-75
2022/08/20 07:16:23;;;;;;;9.50;6.30;;;;;;;25.21;59.37;100042.41;106266;1271;22690;-76
2022/08/20 07:18:50;;;;;;;14.00;7.50;;;;;;;25.22;59.15;100042.19;106405;1269;23078;-75
2022/08/20 07:21:17;;;;;;;10.60;6.50;;;;;;;25.26;59.27;100041.00;106186;1271;24412;-76
2022/08/20 07:23:44;;;;;;;14.90;7.10;;;;;;;25.30;59.11;100043.20;106326;1268;22546;-79
2022/08/20 07:26:12;;;;;;;11.60;6.50;;;;;;;25.34;58.81;100040.03;106407;1270;24221;-77
2022/08/20 07:28:39;;;;;;;8.40;5.60;;;;;;;25.35;58.63;100037.44;106489;1268;22522;-77
2022/08/20 07:33:52;;;;;;;10.40;6.30;;;;;;;25.43;58.66;100038.96;106525;1271;22602;-78
2022/08/20 07:36:19;;;;;;;11.20;6.00;;;;;;;25.47;58.69;100038.83;106613;1269;22611;-77
2022/08/20 07:38:49;;;;;;;11.80;6.70;;;;;;;25.51;58.27;100046.52;106569;1268;22993;-76
2022/08/20 07:41:18;;;;;;;7.80;6.00;;;;;;;25.51;58.10;100043.05;106620;1271;22680;-76
2022/08/20 07:43:46;;;;;;;8.40;5.90;;;;;;;25.57;57.94;100038.45;106530;1271;22706;-76
2022/08/20 07:46:16;;;;;;;6.60;5.70;;;;;;;25.63;57.81;100033.00;106398;1271;22554;-75
2022/08/20 07:48:48;;;;;;;7.70;5.50;;;;;;;25.68;57.59;100033.80;106633;1271;25212;-77
2022/08/20 07:51:21;;;;;;;7.80;4.90;;;;;;;25.74;57.33;100027.94;106717;1268;24075;-76
2022/08/20 07:53:50;;;;;;;13.10;6.10;;;;;;;25.89;57.31;100029.35;106640;1271;22742;-74
2022/08/20 07:56:22;;;;;;;11.20;5.80;;;;;;;26.03;57.14;100025.84;106438;1271;23119;-76
2022/08/20 07:58:54;;;;;;;9.40;5.20;;;;;;;26.14;56.96;100027.35;106481;1271;22592;-77
2022/08/20 08:01:29;;;;;;;7.30;5.90;;;;;;;26.22;56.70;100022.35;106391;1271;25229;-76
2022/08/20 08:03:58;;;;;;;10.30;5.80;;;;;;;26.30;56.65;100020.47;106473;1268;25073;-78
2022/08/20 08:06:26;;;;;;;7.00;5.80;;;;;;;26.34;56.66;100014.73;106427;1271;22646;-77
2022/08/20 08:09:22;;;;;;;8.90;6.20;;;;;;;26.37;56.30;100013.92;106402;1270;23133;-78
2022/08/20 08:11:49;;;;;;;10.90;5.90;;;;;;;26.42;56.15;100011.39;106266;1271;25417;-78
2022/08/20 08:14:23;;;;;;;9.00;5.70;;;;;;;26.46;55.94;100008.33;106266;1271;24430;-74
2022/08/20 08:16:54;;;;;;;7.80;5.50;;;;;;;26.51;55.79;100005.27;106528;1271;24297;-77
2022/08/20 08:19:22;;;;;;;8.50;4.90;;;;;;;26.51;55.46;99991.73;106412;1271;24346;-77
2022/08/20 08:21:50;;;;;;;13.90;6.00;;;;;;;26.60;55.34;99992.06;106314;1271;24383;-78
2022/08/20 08:24:17;;;;;;;7.10;5.30;;;;;;;26.74;55.33;99991.84;106358;1270;25480;-77
2022/08/20 08:26:51;;;;;;;12.00;8.70;;;;;;;26.82;55.06;99997.59;106389;1271;22534;-77
2022/08/20 08:29:18;;;;;;;9.40;5.70;;;;;;;26.91;54.98;99999.61;106332;1271;22582;-76
2022/08/20 08:31:45;;;;;;;7.50;5.20;;;;;;;27.01;54.77;100001.88;106283;1271;24375;-76
2022/08/20 08:34:12;;;;;;;8.00;5.40;;;;;;;27.07;54.74;100001.93;106408;1269;22518;-77
2022/08/20 08:36:42;;;;;;;10.30;5.40;;;;;;;27.11;54.66;100000.84;106391;1270;22724;-77
2022/08/20 08:39:10;;;;;;;7.60;5.50;;;;;;;27.14;54.45;100001.31;106312;1271;22704;-76
2022/08/20 08:41:48;;;;;;;11.50;5.30;;;;;;;27.16;54.08;100000.23;106205;1271;22518;-76
2022/08/20 08:44:26;;;;;;;15.30;5.40;;;;;;;27.17;53.74;100002.36;106298;1271;24225;-76
2022/08/20 08:47:18;;;;;;;7.20;5.10;;;;;;;27.15;53.90;99997.98;106304;1270;22534;-78
2022/08/20 08:49:46;;;;;;;11.30;5.60;;;;;;;27.13;53.65;99989.13;106355;1271;22857;-78
2022/08/20 08:52:17;;;;;;;7.50;4.70;;;;;;;27.24;53.86;99990.02;106412;1271;22546;-77
2022/08/20 08:54:49;;;;;;;7.80;5.20;;;;;;;27.39;53.94;99996.11;106379;1271;22525;-78
2022/08/20 08:57:17;;;;;;;10.50;5.90;;;;;;;27.60;53.74;100000.65;106375;1271;22557;-76
2022/08/20 08:59:49;;;;;;;8.40;5.40;;;;;;;27.71;53.09;100003.92;106323;1271;22550;-80
2022/08/20 09:02:33;;;;;;;9.70;4.70;;;;;;;27.80;52.88;100011.29;106414;1268;22587;-78
2022/08/20 09:05:03;;;;;;;8.10;4.50;;;;;;;27.89;52.45;100011.75;106325;1271;24223;-82
2022/08/20 09:07:32;;;;;;;7.40;4.70;;;;;;;27.90;52.37;100016.01;106281;1271;22603;-76
2022/08/20 09:10:01;;;;;;;13.50;5.50;;;;;;;27.99;52.39;100022.10;106636;1271;23935;-76
2022/08/20 09:12:28;;;;;;;7.00;5.30;;;;;;;28.07;52.25;100026.64;106372;1268;22613;-77
2022/08/20 09:14:54;;;;;;;8.70;5.20;;;;;;;28.09;51.72;100023.70;106424;1271;22761;-79
2022/08/20 09:17:22;;;;;;;6.90;4.70;;;;;;;28.08;51.55;100028.53;106358;1271;25244;-78
2022/08/20 09:19:50;;;;;;;8.70;5.20;;;;;;;28.06;51.28;100030.84;106215;1271;23152;-79
2022/08/20 09:22:21;;;;;;;5.50;4.90;;;;;;;28.03;51.41;100030.20;106309;1271;25196;-75
2022/08/20 09:24:49;;;;;;;15.40;5.10;;;;;;;28.07;51.42;100026.82;106421;1271;22684;-78
2022/08/20 09:27:17;;;;;;;12.30;5.60;;;;;;;28.16;51.66;100020.27;106512;1271;22588;-77
2022/08/20 09:29:44;;;;;;;11.70;4.90;;;;;;;28.30;51.54;100015.72;106485;1271;24395;-77
2022/08/20 09:32:19;;;;;;;11.60;5.70;;;;;;;28.44;51.48;100013.19;106402;1271;24329;-80
2022/08/20 09:34:50;;;;;;;6.70;4.90;;;;;;;28.64;50.86;100009.61;106389;1271;22579;-77
2022/08/20 09:37:18;;;;;;;5.90;4.30;;;;;;;28.79;50.81;100004.27;106321;1268;22748;-80
2022/08/20 09:39:46;;;;;;;8.20;4.40;;;;;;;28.88;50.32;100000.39;106272;1271;26685;-78
2022/08/20 09:42:21;;;;;;;9.10;4.50;;;;;;;29.04;49.96;100005.09;106295;1271;25251;-76
2022/08/20 09:44:48;;;;;;;15.50;5.30;;;;;;;29.16;49.82;100003.77;106324;1271;25419;-80
2022/08/20 09:47:16;;;;;;;11.40;4.70;;;;;;;29.24;49.13;100002.27;106407;1271;25304;-76
2022/08/20 09:49:44;;;;;;;9.50;4.60;;;;;;;29.36;49.05;100005.67;106288;1271;22591;-76
2022/08/20 09:52:22;;;;;;;7.10;4.60;;;;;;;29.53;49.07;100004.86;106295;1271;23696;-77
2022/08/20 09:54:51;;;;;;;11.90;5.00;;;;;;;29.72;48.23;100003.23;106219;1271;22733;-79
2022/08/20 09:57:18;;;;;;;8.10;4.30;;;;;;;29.83;47.91;99996.02;106354;1271;22697;-76
2022/08/20 09:59:50;;;;;;;12.60;4.30;;;;;;;29.95;47.62;99994.01;106442;1271;22534;-76
2022/08/20 10:02:17;;;;;;;10.70;4.80;;;;;;;30.03;47.38;99988.61;106108;1274;23253;-78
2022/08/20 10:04:44;;;;;;;7.00;4.10;;;;;;;30.15;47.17;99981.17;106454;1274;23805;-74
2022/08/20 10:07:14;;;;;;;11.20;4.20;;;;;;;30.28;47.32;99981.42;106010;1274;24354;-74
2022/08/20 10:09:42;;;;;;;9.90;4.00;;;;;;;30.35;46.93;99976.98;105838;1274;24277;-77
2022/08/20 10:12:10;;;;;;;7.80;5.10;;;;;;;30.50;46.83;99984.65;106106;1274;22563;-77
2022/08/20 10:14:36;;;;;;;8.30;4.50;;;;;;;30.63;46.47;99986.75;106073;1274;22563;-79
2022/08/20 10:17:03;;;;;;;7.80;4.40;;;;;;;30.77;46.40;99981.76;106213;1274;22786;-79
2022/08/20 10:19:31;;;;;;;11.40;6.70;;;;;;;30.81;45.91;99976.11;106128;1274;22830;-78
2022/08/20 10:21:58;;;;;;;8.40;4.50;;;;;;;30.88;45.96;99975.21;106432;1271;22571;-76
2022/08/20 10:24:26;;;;;;;7.10;4.30;;;;;;;31.05;45.95;99972.76;106503;1268;22568;-78
2022/08/20 10:26:58;;;;;;;9.30;4.90;;;;;;;31.22;45.55;99968.69;106529;1271;22585;-77
2022/08/20 10:29:26;;;;;;;7.80;4.70;;;;;;;31.30;45.21;99963.92;106617;1271;24207;-76
2022/08/20 10:31:54;;;;;;;9.60;4.40;;;;;;;31.36;44.77;99965.84;106354;1273;22648;-78
2022/08/20 10:34:22;;;;;;;8.50;4.40;;;;;;;31.42;44.71;99963.07;106534;1274;24090;-77
2022/08/20 10:36:49;;;;;;;4.90;3.90;;;;;;;31.55;44.24;99960.04;106280;1274;22603;-75
2022/08/20 10:39:16;;;;;;;10.60;7.50;;;;;;;31.68;44.33;99958.13;106368;1274;22531;-79
2022/08/20 10:41:43;;;;;;;10.10;6.30;;;;;;;31.88;44.19;99958.05;106092;1274;25251;-77
2022/08/20 10:44:09;;;;;;;11.40;4.80;;;;;;;32.06;43.78;99955.39;106096;1274;22685;-76
2022/08/20 10:46:37;;;;;;;5.60;3.80;;;;;;;32.22;43.21;99955.07;105964;1274;22544;-74
2022/08/20 10:49:03;;;;;;;8.10;4.30;;;;;;;32.32;42.47;99956.63;106110;1274;22534;-76
2022/08/20 10:51:30;;;;;;;6.90;4.10;;;;;;;32.42;41.77;99963.06;106373;1271;25312;-77
2022/08/20 10:53:59;;;;;;;8.00;4.20;;;;;;;32.47;41.58;99970.95;106433;1271;23196;-76
2022/08/20 10:56:25;;;;;;;8.10;4.10;;;;;;;32.51;41.48;99978.70;106370;1271;22524;-76
2022/08/20 10:58:52;;;;;;;6.20;3.90;;;;;;;32.55;41.24;99972.26;106436;1269;22540;-78
2022/08/20 11:01:19;;;;;;;6.00;4.10;;;;;;;32.58;40.91;99970.86;106294;1271;25360;-77
2022/08/20 11:04:00;;;;;;;6.50;4.90;;;;;;;32.61;40.57;99973.91;106440;1271;22526;-78
2022/08/20 11:06:27;;;;;;;11.10;3.90;;;;;;;32.52;40.35;99968.94;106346;1271;22525;-79
2022/08/20 11:08:54;;;;;;;11.50;4.70;;;;;;;32.46;40.54;99968.15;106153;1271;22537;-80
2022/08/20 11:11:23;;;;;;;6.90;3.90;;;;;;;32.47;40.39;99960.52;106375;1271;24215;-76
2022/08/20 11:13:49;;;;;;;6.00;3.90;;;;;;;32.64;40.34;99966.94;105355;1271;1356684;-79
2022/08/20 11:16:16;;;;;;;6.20;4.00;;;;;;;32.69;40.09;99962.92;105802;1274;26523;-77
2022/08/20 11:18:43;;;;;;;6.50;3.90;;;;;;;32.78;39.82;99961.75;106002;1274;24015;-77
2022/08/20 11:21:13;;;;;;;11.10;4.00;;;;;;;32.90;39.63;99960.11;106059;1274;22542;-76
2022/08/20 11:23:41;;;;;;;5.60;4.20;;;;;;;32.91;38.99;99954.89;105900;1274;22652;-76
2022/08/20 11:26:07;;;;;;;7.60;4.00;;;;;;;32.99;39.27;99950.36;106054;1272;25237;-78
2022/08/20 11:28:34;;;;;;;8.30;3.90;;;;;;;33.20;39.16;99953.54;105935;1274;23930;-77
2022/08/20 11:31:01;;;;;;;7.80;4.20;;;;;;;33.17;38.54;99948.73;106172;1274;24309;-78
2022/08/20 11:33:28;;;;;;;9.80;4.00;;;;;;;33.01;38.22;99944.41;106041;1274;22546;-77
2022/08/20 11:35:55;;;;;;;6.20;4.00;;;;;;;33.01;38.96;99953.20;105922;1274;22534;-78